Time;durP1;ratioP1;P1;durP2;ratioP2;P2;SDS_P1;SDS_P2;PMS_P1;PMS_P2;Temp;Humidity;BMP_temperature;BMP_pressure;BME280_temperature;BME280_humidity;BME280_pressure;Samples;Min_cycle;Max_cycle;Signal;HPM_P1;HPM_P2
2021/11/25 00:01:12;;;;;;;0.25;0.13;;;;;;;;;;4180440;28;20060;-36
2021/11/25 00:03:13;;;;;;;0.90;0.30;;;;;;;;;;4181103;28;20057;-36
2021/11/25 00:05:14;;;;;;;0.30;0.20;;;;;;;;;;4181157;28;20084;-36
2021/11/25 00:07:15;;;;;;;0.68;0.25;;;;;;;;;;4181226;28;20057;-37
2021/11/25 00:09:16;;;;;;;0.20;0.10;;;;;;;;;;4181041;28;20061;-36
2021/11/25 00:11:17;;;;;;;0.20;0.20;;;;;;;;;;4181272;28;20087;-36
2021/11/25 00:13:19;;;;;;;0.10;0.10;;;;;;;;;;4181435;28;20106;-37
2021/11/25 00:15:21;;;;;;;0.13;0.10;;;;;;;;;;4181083;28;20057;-36
2021/11/25 00:17:22;;;;;;;0.50;0.20;;;;;;;;;;4181043;28;20452;-36
2021/11/25 00:19:23;;;;;;;0.10;0.10;;;;;;;;;;4181202;28;20098;-36
2021/11/25 00:21:24;;;;;;;0.28;0.10;;;;;;;;;;4180928;28;20107;-36
2021/11/25 00:23:25;;;;;;;0.10;0.10;;;;;;;;;;4194583;28;20057;-36
2021/11/25 00:25:27;;;;;;;0.43;0.10;;;;;;;;;;4196642;28;20116;-37
2021/11/25 00:27:28;;;;;;;0.45;0.20;;;;;;;;;;4181088;28;20515;-36
2021/11/25 00:29:29;;;;;;;0.17;0.10;;;;;;;;;;4180244;28;20061;-36
2021/11/25 00:31:30;;;;;;;0.20;0.20;;;;;;;;;;4179668;28;20116;-36
2021/11/25 00:33:32;;;;;;;0.22;0.10;;;;;;;;;;4180731;28;20053;-37
2021/11/25 00:35:33;;;;;;;0.40;0.13;;;;;;;;;;4178826;28;20431;-37
2021/11/25 00:37:35;;;;;;;0.13;0.10;;;;;;;;;;4197547;28;20106;-36
2021/11/25 00:39:36;;;;;;;0.40;0.20;;;;;;;;;;4197255;28;20110;-36
2021/11/25 00:41:38;;;;;;;0.40;0.10;;;;;;;;;;4179753;28;20060;-37
2021/11/25 00:43:40;;;;;;;0.20;0.10;;;;;;;;;;4180878;28;20106;-36
2021/11/25 00:45:41;;;;;;;0.10;0.10;;;;;;;;;;4180903;28;20068;-36
2021/11/25 00:47:43;;;;;;;0.10;0.10;;;;;;;;;;4180360;28;20053;-36
2021/11/25 00:49:44;;;;;;;0.35;0.10;;;;;;;;;;4180712;28;20068;-36
2021/11/25 00:51:45;;;;;;;0.20;0.10;;;;;;;;;;4180619;28;20056;-37
2021/11/25 00:53:46;;;;;;;0.28;0.20;;;;;;;;;;4180303;28;20543;-38
2021/11/25 00:55:47;;;;;;;0.20;0.20;;;;;;;;;;4180267;28;20056;-39
2021/11/25 00:57:48;;;;;;;0.10;0.10;;;;;;;;;;4180423;28;20057;-36
2021/11/25 00:59:51;;;;;;;0.17;0.10;;;;;;;;;;4180879;28;20068;-36
2021/11/25 01:01:53;;;;;;;0.30;0.20;;;;;;;;;;4180559;28;20068;-36
2021/11/25 01:03:54;;;;;;;0.20;0.10;;;;;;;;;;4180512;28;20492;-36
2021/11/25 01:05:55;;;;;;;0.00;0.00;;;;;;;;;;4182307;28;20087;-36
2021/11/25 01:07:57;;;;;;;0.20;0.10;;;;;;;;;;4182244;28;20064;-36
2021/11/25 01:09:58;;;;;;;0.40;0.10;;;;;;;;;;4183693;28;20118;-36
2021/11/25 01:12:02;;;;;;;0.30;0.20;;;;;;;;;;4184060;28;20382;-37
2021/11/25 01:14:03;;;;;;;0.40;0.20;;;;;;;;;;4183886;28;20557;-37
2021/11/25 01:16:04;;;;;;;0.15;0.10;;;;;;;;;;4183888;28;20060;-36
2021/11/25 01:18:08;;;;;;;0.10;0.10;;;;;;;;;;4183762;28;20471;-37
2021/11/25 01:20:15;;;;;;;0.55;0.10;;;;;;;;;;4166395;28;20096;-37
2021/11/25 01:22:18;;;;;;;0.35;0.10;;;;;;;;;;4183018;28;20057;-37
2021/11/25 01:24:20;;;;;;;0.10;0.10;;;;;;;;;;4178290;28;20417;-37
2021/11/25 01:26:22;;;;;;;0.20;0.10;;;;;;;;;;4167048;28;20103;-36
2021/11/25 01:28:24;;;;;;;0.10;0.10;;;;;;;;;;4167117;28;20398;-36
2021/11/25 01:30:27;;;;;;;0.55;0.10;;;;;;;;;;4167159;28;20115;-36
2021/11/25 01:32:28;;;;;;;0.20;0.10;;;;;;;;;;4167447;28;20053;-37
2021/11/25 01:34:29;;;;;;;0.43;0.10;;;;;;;;;;4149613;28;20665;-36
2021/11/25 01:36:31;;;;;;;0.20;0.17;;;;;;;;;;4167450;28;20128;-36
2021/11/25 01:38:32;;;;;;;0.20;0.10;;;;;;;;;;4166592;28;20405;-36
2021/11/25 01:40:35;;;;;;;0.20;0.10;;;;;;;;;;4167379;28;20060;-37
2021/11/25 01:42:36;;;;;;;0.15;0.10;;;;;;;;;;4133455;28;20062;-36
2021/11/25 01:44:37;;;;;;;0.05;0.05;;;;;;;;;;4166883;28;20065;-37
2021/11/25 01:46:38;;;;;;;0.28;0.10;;;;;;;;;;4167315;28;20080;-36
2021/11/25 01:48:40;;;;;;;0.08;0.05;;;;;;;;;;4166759;28;20049;-37
2021/11/25 01:50:43;;;;;;;0.32;0.10;;;;;;;;;;4166948;28;20053;-36
2021/11/25 01:52:45;;;;;;;0.52;0.10;;;;;;;;;;4178165;28;20048;-36
2021/11/25 01:54:46;;;;;;;0.40;0.20;;;;;;;;;;4183802;28;20057;-36
2021/11/25 01:56:47;;;;;;;0.20;0.20;;;;;;;;;;4182746;28;20053;-37
2021/11/25 01:58:49;;;;;;;0.10;0.10;;;;;;;;;;4182974;28;20378;-37
2021/11/25 02:00:53;;;;;;;0.95;0.10;;;;;;;;;;4183027;28;20110;-36
2021/11/25 02:02:54;;;;;;;0.13;0.13;;;;;;;;;;4183004;28;20053;-37
2021/11/25 02:04:56;;;;;;;0.10;0.10;;;;;;;;;;4183464;28;20068;-37
2021/11/25 02:06:57;;;;;;;0.10;0.10;;;;;;;;;;4183260;28;20198;-37
2021/11/25 02:08:59;;;;;;;0.10;0.10;;;;;;;;;;4182488;28;20049;-37
2021/11/25 02:11:00;;;;;;;0.10;0.10;;;;;;;;;;4183208;28;20061;-36
2021/11/25 02:13:02;;;;;;;0.10;0.00;;;;;;;;;;4181696;28;20049;-36
2021/11/25 02:15:03;;;;;;;0.35;0.10;;;;;;;;;;4183204;28;20057;-37
2021/11/25 02:17:04;;;;;;;0.22;0.08;;;;;;;;;;4148973;28;20058;-36
2021/11/25 02:19:07;;;;;;;0.40;0.20;;;;;;;;;;4182883;28;20049;-36
2021/11/25 02:21:08;;;;;;;0.40;0.10;;;;;;;;;;4183160;28;20053;-36
2021/11/25 02:23:12;;;;;;;0.40;0.20;;;;;;;;;;4164582;28;20983;-36
2021/11/25 02:25:14;;;;;;;0.13;0.10;;;;;;;;;;4182852;28;20056;-36
2021/11/25 02:27:21;;;;;;;0.20;0.10;;;;;;;;;;4183013;28;20056;-37
2021/11/25 02:29:23;;;;;;;0.10;0.10;;;;;;;;;;4182865;28;20131;-36
2021/11/25 02:31:24;;;;;;;0.20;0.10;;;;;;;;;;4181651;28;20064;-38
2021/11/25 02:33:25;;;;;;;0.17;0.15;;;;;;;;;;4165063;28;20060;-36
2021/11/25 02:35:30;;;;;;;0.10;0.10;;;;;;;;;;4183041;28;20061;-36
2021/11/25 02:37:31;;;;;;;0.10;0.10;;;;;;;;;;4182950;28;20052;-36
2021/11/25 02:39:33;;;;;;;0.20;0.20;;;;;;;;;;4182152;28;20087;-35
2021/11/25 02:41:35;;;;;;;0.10;0.10;;;;;;;;;;4182595;28;20052;-37
2021/11/25 02:43:37;;;;;;;0.10;0.10;;;;;;;;;;4164730;28;20497;-36
2021/11/25 02:45:50;;;;;;;0.30;0.10;;;;;;;;;;4182819;28;20111;-36
2021/11/25 02:47:52;;;;;;;0.10;0.10;;;;;;;;;;4182657;28;20064;-36
2021/11/25 02:49:53;;;;;;;0.95;0.13;;;;;;;;;;4182458;28;20064;-41
2021/11/25 02:51:54;;;;;;;0.40;0.20;;;;;;;;;;4182401;28;20068;-38
2021/11/25 02:53:55;;;;;;;0.22;0.10;;;;;;;;;;4164158;28;20057;-36
2021/11/25 02:55:58;;;;;;;0.10;0.10;;;;;;;;;;4182409;28;20106;-36
2021/11/25 02:57:59;;;;;;;0.15;0.10;;;;;;;;;;4182104;28;20083;-36
2021/11/25 03:00:00;;;;;;;0.70;0.10;;;;;;;;;;4182633;28;20060;-37
2021/11/25 03:02:02;;;;;;;0.30;0.20;;;;;;;;;;4182232;28;20390;-36
2021/11/25 03:04:04;;;;;;;0.00;0.00;;;;;;;;;;4182406;28;20057;-36
2021/11/25 03:06:05;;;;;;;0.10;0.10;;;;;;;;;;4182226;28;20056;-36
2021/11/25 03:08:08;;;;;;;0.20;0.20;;;;;;;;;;4163898;28;20509;-37
2021/11/25 03:10:09;;;;;;;0.10;0.10;;;;;;;;;;4182006;28;20057;-36
2021/11/25 03:12:10;;;;;;;0.10;0.10;;;;;;;;;;4180963;28;20107;-36
2021/11/25 03:14:11;;;;;;;0.03;0.03;;;;;;;;;;4182194;28;20098;-36
2021/11/25 03:16:14;;;;;;;0.10;0.10;;;;;;;;;;4182182;28;20053;-36
2021/11/25 03:18:15;;;;;;;0.15;0.10;;;;;;;;;;4182181;28;20103;-36
2021/11/25 03:20:16;;;;;;;0.10;0.10;;;;;;;;;;4181964;28;20061;-36
2021/11/25 03:22:17;;;;;;;0.08;0.08;;;;;;;;;;4181996;28;20056;-37
2021/11/25 03:24:19;;;;;;;0.32;0.20;;;;;;;;;;4163793;28;20382;-36
2021/11/25 03:26:22;;;;;;;0.35;0.10;;;;;;;;;;4181924;28;20060;-36
2021/11/25 03:28:24;;;;;;;0.17;0.10;;;;;;;;;;4181285;28;20053;-37
2021/11/25 03:30:25;;;;;;;0.20;0.10;;;;;;;;;;4182023;28;20061;-36
2021/11/25 03:32:26;;;;;;;0.10;0.10;;;;;;;;;;4181840;28;20075;-36
2021/11/25 03:34:27;;;;;;;0.17;0.10;;;;;;;;;;4182004;28;20107;-36
2021/11/25 03:36:28;;;;;;;0.00;0.00;;;;;;;;;;4181867;28;20392;-37
2021/11/25 03:38:30;;;;;;;0.00;0.00;;;;;;;;;;4181167;28;20056;-36
2021/11/25 03:40:31;;;;;;;0.10;0.10;;;;;;;;;;4181678;28;20179;-36
2021/11/25 03:42:33;;;;;;;0.00;0.00;;;;;;;;;;4181791;28;20053;-40
2021/11/25 03:44:34;;;;;;;0.08;0.03;;;;;;;;;;4181642;28;20057;-36
2021/11/25 03:46:35;;;;;;;0.20;0.10;;;;;;;;;;4181588;28;20056;-37
2021/11/25 03:48:37;;;;;;;0.32;0.10;;;;;;;;;;4181435;28;20487;-36
2021/11/25 03:50:38;;;;;;;0.10;0.10;;;;;;;;;;4181618;28;20061;-37
2021/11/25 03:52:39;;;;;;;0.50;0.10;;;;;;;;;;4181233;28;20107;-36
2021/11/25 03:54:40;;;;;;;0.10;0.10;;;;;;;;;;4181411;28;20455;-37
2021/11/25 03:56:41;;;;;;;0.10;0.10;;;;;;;;;;4163923;28;20084;-36
2021/11/25 03:58:43;;;;;;;0.25;0.25;;;;;;;;;;4181289;28;20060;-36
2021/11/25 04:00:46;;;;;;;0.70;0.10;;;;;;;;;;4180285;28;20057;-36
2021/11/25 04:02:49;;;;;;;0.10;0.10;;;;;;;;;;4181237;28;20111;-37
2021/11/25 04:04:50;;;;;;;0.10;0.10;;;;;;;;;;4181353;28;20099;-37
2021/11/25 04:06:51;;;;;;;0.38;0.10;;;;;;;;;;4181646;28;20061;-36
2021/11/25 04:08:52;;;;;;;0.55;0.20;;;;;;;;;;4180687;28;20108;-37
2021/11/25 04:10:53;;;;;;;0.10;0.10;;;;;;;;;;4181130;28;20049;-36
2021/11/25 04:12:55;;;;;;;0.10;0.10;;;;;;;;;;4181078;28;20061;-36
2021/11/25 04:14:56;;;;;;;0.10;0.10;;;;;;;;;;4181503;28;20053;-36
2021/11/25 04:16:58;;;;;;;0.10;0.10;;;;;;;;;;4181338;28;20057;-37
2021/11/25 04:18:59;;;;;;;0.20;0.20;;;;;;;;;;4180960;28;20065;-36
2021/11/25 04:21:00;;;;;;;0.10;0.10;;;;;;;;;;4181391;28;20069;-36
2021/11/25 04:23:03;;;;;;;0.35;0.00;;;;;;;;;;4162853;28;20061;-36
2021/11/25 04:25:06;;;;;;;0.00;0.00;;;;;;;;;;4180920;28;20060;-36
2021/11/25 04:27:07;;;;;;;0.17;0.00;;;;;;;;;;4181217;28;20434;-37
2021/11/25 04:29:09;;;;;;;0.60;0.15;;;;;;;;;;4180850;28;20049;-36
2021/11/25 04:35:49;;;;;;;0.28;0.08;;;;;;;;;;4181029;28;20053;-37
2021/11/25 04:37:50;;;;;;;0.20;0.10;;;;;;;;;;4180393;28;20061;-37
2021/11/25 04:39:52;;;;;;;0.10;0.10;;;;;;;;;;4179949;28;20493;-36
2021/11/25 04:41:53;;;;;;;0.10;0.08;;;;;;;;;;4180874;28;20056;-36
2021/11/25 04:43:55;;;;;;;0.20;0.10;;;;;;;;;;4180615;28;20061;-36
2021/11/25 04:45:56;;;;;;;0.10;0.10;;;;;;;;;;4181090;28;20059;-36
2021/11/25 04:47:58;;;;;;;0.38;0.10;;;;;;;;;;4180785;28;20065;-37
2021/11/25 04:50:00;;;;;;;0.10;0.10;;;;;;;;;;4180844;28;20060;-36
2021/11/25 04:52:04;;;;;;;0.10;0.10;;;;;;;;;;4180765;28;20119;-36
2021/11/25 04:54:06;;;;;;;0.80;0.20;;;;;;;;;;4180100;28;20061;-36
2021/11/25 04:56:07;;;;;;;0.22;0.10;;;;;;;;;;4178555;28;20053;-37
2021/11/25 04:58:09;;;;;;;0.35;0.10;;;;;;;;;;4180568;28;20504;-36
2021/11/25 05:00:11;;;;;;;0.03;0.03;;;;;;;;;;4180046;28;20489;-36
2021/11/25 05:02:12;;;;;;;0.40;0.10;;;;;;;;;;4180383;28;20508;-36
2021/11/25 05:04:13;;;;;;;0.00;0.00;;;;;;;;;;4180473;28;20554;-36
2021/11/25 05:06:15;;;;;;;0.20;0.10;;;;;;;;;;4162313;28;20164;-36
2021/11/25 05:08:16;;;;;;;0.25;0.10;;;;;;;;;;4179992;28;20473;-36
2021/11/25 05:10:17;;;;;;;0.05;0.05;;;;;;;;;;4180836;28;20061;-37
2021/11/25 05:12:19;;;;;;;0.20;0.10;;;;;;;;;;4180532;28;20060;-36
2021/11/25 05:14:20;;;;;;;0.17;0.10;;;;;;;;;;4180840;28;20056;-36
2021/11/25 05:16:21;;;;;;;0.20;0.10;;;;;;;;;;4180557;28;20098;-36
2021/11/25 05:18:22;;;;;;;0.20;0.10;;;;;;;;;;4180439;28;20119;-36
2021/11/25 05:20:23;;;;;;;0.20;0.10;;;;;;;;;;4179902;28;20053;-37
2021/11/25 05:22:24;;;;;;;0.10;0.10;;;;;;;;;;4180338;28;20065;-37
2021/11/25 05:24:25;;;;;;;0.00;0.00;;;;;;;;;;4180082;28;20489;-36
2021/11/25 05:26:27;;;;;;;0.20;0.10;;;;;;;;;;4180469;28;20061;-36
2021/11/25 05:28:28;;;;;;;0.75;0.10;;;;;;;;;;4180378;28;20053;-37
2021/11/25 05:30:32;;;;;;;0.10;0.05;;;;;;;;;;4161485;28;20057;-41
2021/11/25 05:32:33;;;;;;;0.20;0.10;;;;;;;;;;4176999;28;20053;-37
2021/11/25 05:34:34;;;;;;;0.40;0.10;;;;;;;;;;4194347;28;20056;-37
2021/11/25 05:36:35;;;;;;;0.00;0.00;;;;;;;;;;4182859;28;20060;-37
2021/11/25 05:38:36;;;;;;;0.10;0.10;;;;;;;;;;4196593;28;20056;-36
2021/11/25 05:40:38;;;;;;;0.10;0.10;;;;;;;;;;4179268;28;20120;-36
2021/11/25 05:42:39;;;;;;;0.20;0.10;;;;;;;;;;4196648;28;20052;-36
2021/11/25 05:44:40;;;;;;;0.00;0.00;;;;;;;;;;4167720;28;20084;-36
2021/11/25 05:46:42;;;;;;;0.47;0.10;;;;;;;;;;4179504;28;20057;-37
2021/11/25 05:48:43;;;;;;;0.03;0.03;;;;;;;;;;4180338;28;20095;-36
2021/11/25 05:50:44;;;;;;;0.10;0.10;;;;;;;;;;4162629;28;20476;-36
2021/11/25 05:52:47;;;;;;;0.08;0.05;;;;;;;;;;4182794;28;20115;-36
2021/11/25 05:54:48;;;;;;;0.80;0.30;;;;;;;;;;4183465;28;20083;-36
2021/11/25 05:56:49;;;;;;;0.77;0.10;;;;;;;;;;4183145;28;20115;-36
2021/11/25 05:58:50;;;;;;;0.10;0.10;;;;;;;;;;4183090;28;20053;-36
2021/11/25 06:00:51;;;;;;;0.10;0.10;;;;;;;;;;4183075;28;20053;-38
2021/11/25 06:02:53;;;;;;;0.17;0.10;;;;;;;;;;4190563;28;20052;-37
2021/11/25 06:04:54;;;;;;;0.00;0.00;;;;;;;;;;4182077;28;20049;-36
2021/11/25 06:06:55;;;;;;;0.10;0.00;;;;;;;;;;4182828;28;20057;-38
2021/11/25 06:08:56;;;;;;;0.10;0.10;;;;;;;;;;4187274;28;20484;-37
2021/11/25 06:11:02;;;;;;;0.00;0.00;;;;;;;;;;4181926;28;20111;-37
2021/11/25 06:13:03;;;;;;;0.30;0.10;;;;;;;;;;4183114;28;20493;-37
2021/11/25 06:15:05;;;;;;;0.10;0.10;;;;;;;;;;4183032;28;20052;-40
2021/11/25 06:17:06;;;;;;;0.00;0.00;;;;;;;;;;4183378;28;20053;-36
2021/11/25 06:19:07;;;;;;;0.00;0.00;;;;;;;;;;4182758;28;20107;-37
2021/11/25 06:21:09;;;;;;;0.10;0.10;;;;;;;;;;4183016;28;20053;-37
2021/11/25 06:23:10;;;;;;;0.00;0.00;;;;;;;;;;4182362;28;20094;-37
2021/11/25 06:25:12;;;;;;;0.17;0.10;;;;;;;;;;4182933;28;20061;-36
2021/11/25 06:27:13;;;;;;;0.20;0.00;;;;;;;;;;4183087;28;20052;-36
2021/11/25 06:29:14;;;;;;;0.08;0.08;;;;;;;;;;4182731;28;20060;-37
2021/11/25 06:31:16;;;;;;;0.22;0.08;;;;;;;;;;4180560;28;20049;-37
2021/11/25 06:33:17;;;;;;;0.75;0.08;;;;;;;;;;4179230;28;20106;-38
2021/11/25 06:35:20;;;;;;;0.28;0.10;;;;;;;;;;4182680;28;20106;-37
2021/11/25 06:37:21;;;;;;;0.00;0.00;;;;;;;;;;4156705;28;20062;-37
2021/11/25 06:39:22;;;;;;;0.10;0.10;;;;;;;;;;4173913;28;20060;-36
2021/11/25 06:41:24;;;;;;;0.28;0.20;;;;;;;;;;4182661;28;20065;-37
2021/11/25 06:43:26;;;;;;;0.15;0.00;;;;;;;;;;4186694;28;20063;-37
2021/11/25 06:45:28;;;;;;;0.10;0.10;;;;;;;;;;4183273;28;20052;-37
2021/11/25 06:47:29;;;;;;;0.20;0.10;;;;;;;;;;4188730;28;20523;-37
2021/11/25 06:49:30;;;;;;;0.22;0.10;;;;;;;;;;4179549;28;20053;-37
2021/11/25 06:51:32;;;;;;;1.02;0.17;;;;;;;;;;4178048;28;20098;-37
2021/11/25 06:53:33;;;;;;;0.15;0.05;;;;;;;;;;4165605;28;20057;-38
2021/11/25 06:55:34;;;;;;;0.13;0.00;;;;;;;;;;4160195;28;20477;-37
2021/11/25 06:57:36;;;;;;;0.10;0.10;;;;;;;;;;4176200;28;20120;-36
2021/11/25 06:59:39;;;;;;;0.20;0.10;;;;;;;;;;4176901;28;20107;-38
2021/11/25 07:01:40;;;;;;;0.50;0.20;;;;;;;;;;4173580;28;20080;-37
2021/11/25 07:03:42;;;;;;;0.45;0.13;;;;;;;;;;4168766;28;20072;-36
2021/11/25 07:05:43;;;;;;;0.00;0.00;;;;;;;;;;4171353;28;20106;-37
2021/11/25 07:07:45;;;;;;;0.30;0.10;;;;;;;;;;4154774;28;20123;-36
2021/11/25 07:09:46;;;;;;;0.35;0.20;;;;;;;;;;4169722;28;20072;-36
2021/11/25 07:11:47;;;;;;;0.73;0.20;;;;;;;;;;4163346;28;20127;-37
2021/11/25 07:13:48;;;;;;;0.95;0.22;;;;;;;;;;4174333;28;20065;-37
2021/11/25 07:15:50;;;;;;;0.20;0.10;;;;;;;;;;4155075;28;20078;-36
2021/11/25 07:17:52;;;;;;;0.28;0.20;;;;;;;;;;4172781;28;20631;-36
2021/11/25 07:19:53;;;;;;;0.17;0.10;;;;;;;;;;4172241;28;20045;-36
2021/11/25 07:21:54;;;;;;;0.17;0.17;;;;;;;;;;4162420;28;20060;-36
2021/11/25 07:23:55;;;;;;;0.90;0.20;;;;;;;;;;4148690;28;20524;-39
2021/11/25 07:25:56;;;;;;;1.05;0.30;;;;;;;;;;4153720;28;20595;-36
2021/11/25 07:27:57;;;;;;;0.88;0.20;;;;;;;;;;4158442;28;20465;-37
2021/11/25 07:29:58;;;;;;;0.45;0.15;;;;;;;;;;4149296;28;20053;-38
2021/11/25 07:31:59;;;;;;;0.47;0.30;;;;;;;;;;4163927;28;20159;-35
2021/11/25 07:34:01;;;;;;;0.52;0.22;;;;;;;;;;4166759;28;20076;-37
2021/11/25 07:36:03;;;;;;;0.60;0.25;;;;;;;;;;4175454;28;20053;-37
2021/11/25 07:38:05;;;;;;;0.70;0.20;;;;;;;;;;4167616;28;20107;-36
2021/11/25 07:40:08;;;;;;;0.68;0.20;;;;;;;;;;4170176;28;20060;-38
2021/11/25 07:42:09;;;;;;;0.57;0.20;;;;;;;;;;4173499;28;21871;-37
2021/11/25 07:44:11;;;;;;;0.57;0.10;;;;;;;;;;4174011;28;20065;-37
2021/11/25 07:46:13;;;;;;;0.25;0.10;;;;;;;;;;4169000;28;20065;-38
2021/11/25 07:48:15;;;;;;;0.68;0.20;;;;;;;;;;4157630;28;20164;-42
2021/11/25 07:50:21;;;;;;;0.32;0.10;;;;;;;;;;4152415;28;20099;-39
2021/11/25 07:52:22;;;;;;;0.20;0.20;;;;;;;;;;4143347;28;20484;-37
2021/11/25 07:54:23;;;;;;;1.92;0.28;;;;;;;;;;4158935;28;20119;-38
2021/11/25 07:56:24;;;;;;;0.17;0.10;;;;;;;;;;4164206;28;20425;-37
2021/11/25 07:58:28;;;;;;;0.60;0.20;;;;;;;;;;4158899;28;20063;-37
2021/11/25 08:00:29;;;;;;;0.32;0.20;;;;;;;;;;4162679;28;20061;-37
2021/11/25 08:02:32;;;;;;;0.80;0.20;;;;;;;;;;4150323;28;20058;-39
2021/11/25 08:04:33;;;;;;;2.90;0.20;;;;;;;;;;4147249;28;20119;-37
2021/11/25 08:06:34;;;;;;;0.30;0.20;;;;;;;;;;4156852;28;20394;-38
2021/11/25 08:08:36;;;;;;;0.10;0.10;;;;;;;;;;4156502;28;20104;-38
2021/11/25 08:10:37;;;;;;;1.08;0.30;;;;;;;;;;4153658;28;20049;-40
2021/11/25 08:12:40;;;;;;;2.15;0.30;;;;;;;;;;4161036;28;20061;-38
2021/11/25 08:14:41;;;;;;;0.28;0.20;;;;;;;;;;4149506;28;20053;-38
2021/11/25 08:16:43;;;;;;;1.63;0.30;;;;;;;;;;4150536;28;20081;-39
2021/11/25 08:18:44;;;;;;;0.28;0.10;;;;;;;;;;4160159;28;20102;-39
2021/11/25 08:20:46;;;;;;;0.47;0.20;;;;;;;;;;4164356;28;20049;-38
2021/11/25 08:22:47;;;;;;;0.50;0.20;;;;;;;;;;4160612;28;20057;-40
2021/11/25 08:24:48;;;;;;;0.77;0.17;;;;;;;;;;4164945;28;20057;-38
2021/11/25 08:26:49;;;;;;;0.80;0.25;;;;;;;;;;4167590;28;20067;-38
2021/11/25 08:28:50;;;;;;;0.43;0.20;;;;;;;;;;4147836;28;20127;-39
2021/11/25 08:30:52;;;;;;;0.20;0.13;;;;;;;;;;4164965;28;20053;-39
2021/11/25 08:32:54;;;;;;;1.65;0.20;;;;;;;;;;4162212;28;20061;-39
2021/11/25 08:34:55;;;;;;;0.38;0.20;;;;;;;;;;4163618;28;20072;-38
2021/11/25 08:36:56;;;;;;;0.25;0.25;;;;;;;;;;4161042;28;20146;-38
2021/11/25 08:38:57;;;;;;;0.40;0.20;;;;;;;;;;4158145;28;20115;-38
2021/11/25 08:41:00;;;;;;;1.10;0.30;;;;;;;;;;4158905;28;20060;-38
2021/11/25 08:43:01;;;;;;;1.67;0.30;;;;;;;;;;4151702;28;20230;-37
2021/11/25 08:45:03;;;;;;;0.30;0.20;;;;;;;;;;4160298;28;20102;-40
2021/11/25 08:47:04;;;;;;;1.73;0.28;;;;;;;;;;4159934;28;20046;-40
2021/11/25 08:49:06;;;;;;;1.83;0.30;;;;;;;;;;4147827;28;20053;-41
2021/11/25 08:51:07;;;;;;;0.20;0.20;;;;;;;;;;4160237;28;20147;-38
2021/11/25 08:53:08;;;;;;;0.30;0.20;;;;;;;;;;4137431;28;20454;-37
2021/11/25 08:55:10;;;;;;;1.30;0.40;;;;;;;;;;4171458;28;20064;-38
2021/11/25 08:57:11;;;;;;;0.52;0.22;;;;;;;;;;4163811;28;20121;-39
2021/11/25 08:59:12;;;;;;;0.60;0.40;;;;;;;;;;4162444;28;20811;-37
2021/11/25 09:01:14;;;;;;;0.50;0.22;;;;;;;;;;4156391;28;20060;-38
2021/11/25 09:03:15;;;;;;;0.63;0.30;;;;;;;;;;4159749;28;20125;-37
2021/11/25 09:05:16;;;;;;;2.67;0.38;;;;;;;;;;4166139;28;20723;-38
2021/11/25 09:07:17;;;;;;;0.63;0.30;;;;;;;;;;4164504;28;20093;-37
2021/11/25 09:09:19;;;;;;;1.58;0.50;;;;;;;;;;4160442;28;20056;-39
2021/11/25 09:11:20;;;;;;;0.60;0.22;;;;;;;;;;4161517;28;20698;-41
2021/11/25 09:13:22;;;;;;;0.82;0.40;;;;;;;;;;4160593;28;20049;-39
2021/11/25 09:15:24;;;;;;;0.50;0.20;;;;;;;;;;4164378;28;20077;-38
2021/11/25 09:17:26;;;;;;;5.47;0.32;;;;;;;;;;4163079;28;20119;-38
2021/11/25 09:19:27;;;;;;;1.15;0.30;;;;;;;;;;4163074;28;20060;-39
2021/11/25 09:21:30;;;;;;;2.92;0.30;;;;;;;;;;4153328;28;20511;-39
2021/11/25 09:23:32;;;;;;;0.82;0.30;;;;;;;;;;4129373;28;20058;-38
2021/11/25 09:25:33;;;;;;;3.60;0.28;;;;;;;;;;4128631;28;20058;-39
2021/11/25 09:27:34;;;;;;;0.20;0.13;;;;;;;;;;4149724;28;20755;-38
2021/11/25 09:29:36;;;;;;;0.85;0.30;;;;;;;;;;4146170;28;20099;-39
2021/11/25 09:31:37;;;;;;;0.85;0.30;;;;;;;;;;4145781;28;20119;-40
2021/11/25 09:33:39;;;;;;;0.98;0.38;;;;;;;;;;4135623;28;20105;-39
2021/11/25 09:35:40;;;;;;;0.50;0.38;;;;;;;;;;4148482;28;20116;-40
2021/11/25 09:37:41;;;;;;;0.45;0.13;;;;;;;;;;4154393;28;20379;-38
2021/11/25 09:39:43;;;;;;;0.30;0.25;;;;;;;;;;4150448;28;20053;-39
2021/11/25 09:41:44;;;;;;;0.77;0.43;;;;;;;;;;4147399;28;20090;-38
2021/11/25 09:43:45;;;;;;;0.65;0.30;;;;;;;;;;4150366;28;20494;-37
2021/11/25 09:45:49;;;;;;;0.70;0.30;;;;;;;;;;4147061;28;20120;-37
2021/11/25 09:47:55;;;;;;;0.50;0.20;;;;;;;;;;4144441;28;20069;-37
2021/11/25 09:49:57;;;;;;;2.25;0.50;;;;;;;;;;4137250;28;20054;-38
2021/11/25 09:51:58;;;;;;;1.58;0.38;;;;;;;;;;4148218;28;20053;-39
2021/11/25 09:53:59;;;;;;;0.60;0.25;;;;;;;;;;4145790;28;20068;-38
2021/11/25 09:56:04;;;;;;;0.60;0.40;;;;;;;;;;4137448;28;20153;-37
2021/11/25 09:58:06;;;;;;;0.75;0.30;;;;;;;;;;4133039;28;20072;-37
2021/11/25 10:00:08;;;;;;;0.57;0.45;;;;;;;;;;4145798;28;20058;-40
2021/11/25 10:02:13;;;;;;;0.95;0.40;;;;;;;;;;4133343;28;20058;-38
2021/11/25 10:04:14;;;;;;;0.70;0.40;;;;;;;;;;4147124;28;20439;-37
2021/11/25 10:06:23;;;;;;;1.05;0.45;;;;;;;;;;4145026;28;20360;-38
2021/11/25 10:08:25;;;;;;;0.57;0.32;;;;;;;;;;4139479;28;20060;-39
2021/11/25 10:10:32;;;;;;;1.20;0.30;;;;;;;;;;4140413;28;20116;-38
2021/11/25 10:12:36;;;;;;;0.30;0.20;;;;;;;;;;4152376;28;20058;-38
2021/11/25 10:14:38;;;;;;;0.70;0.25;;;;;;;;;;4150212;28;20066;-38
2021/11/25 10:16:41;;;;;;;0.22;0.20;;;;;;;;;;4153095;28;20107;-37
2021/11/25 10:18:43;;;;;;;2.20;0.30;;;;;;;;;;4147187;28;20053;-37
2021/11/25 10:20:50;;;;;;;0.93;0.30;;;;;;;;;;4148101;28;20068;-37
2021/11/25 10:23:01;;;;;;;0.80;0.20;;;;;;;;;;4160533;28;20449;-38
2021/11/25 10:25:02;;;;;;;1.00;0.30;;;;;;;;;;4163632;28;20107;-36
2021/11/25 10:27:25;;;;;;;0.75;0.22;;;;;;;;;;4167171;28;20057;-37
2021/11/25 10:29:26;;;;;;;1.38;0.30;;;;;;;;;;4167945;28;20053;-39
2021/11/25 10:31:39;;;;;;;4.10;0.47;;;;;;;;;;4163986;28;20064;-37
2021/11/25 10:33:50;;;;;;;1.48;0.20;;;;;;;;;;4147778;28;20049;-39
2021/11/25 10:40:25;;;;;;;0.90;0.50;;;;;;;;;;4159794;28;20110;-38
2021/11/25 10:42:35;;;;;;;1.35;0.50;;;;;;;;;;4155833;28;20115;-38
2021/11/25 10:44:39;;;;;;;;;;;;;;;;;;4155148;28;21171;-39
2021/11/25 10:46:47;;;;;;;1.35;0.55;;;;;;;;;;4157013;28;20005;-40
2021/11/25 10:48:51;;;;;;;1.45;0.75;;;;;;;;;;4161981;28;20488;-41
2021/11/25 10:50:52;;;;;;;2.00;0.70;;;;;;;;;;4164317;28;20049;-39
2021/11/25 10:53:09;;;;;;;1.85;0.60;;;;;;;;;;4163998;28;20064;-40
2021/11/25 10:55:16;;;;;;;1.15;0.40;;;;;;;;;;4164378;28;20879;-38
2021/11/25 10:57:18;;;;;;;2.03;0.88;;;;;;;;;;4159935;28;20060;-36
2021/11/25 10:59:22;;;;;;;1.08;0.50;;;;;;;;;;4159247;28;20057;-37
2021/11/25 11:01:40;;;;;;;1.45;0.60;;;;;;;;;;4142299;28;20352;-42
2021/11/25 11:03:57;;;;;;;2.03;0.80;;;;;;;;;;4160240;28;20469;-39
2021/11/25 11:06:01;;;;;;;1.67;0.70;;;;;;;;;;4165765;28;20045;-38
2021/11/25 11:08:05;;;;;;;1.13;0.60;;;;;;;;;;4127401;28;20046;-40
2021/11/25 11:10:27;;;;;;;1.08;0.60;;;;;;;;;;4155262;28;20753;-37
2021/11/25 11:12:46;;;;;;;1.98;0.82;;;;;;;;;;4165025;28;20087;-39
2021/11/25 11:14:55;;;;;;;1.67;0.88;;;;;;;;;;4136087;28;20572;-38
2021/11/25 11:17:34;;;;;;;1.10;0.70;;;;;;;;;;4169230;28;20396;-42
2021/11/25 11:19:36;;;;;;;1.52;0.50;;;;;;;;;;4169362;28;20041;-37
2021/11/25 11:21:41;;;;;;;5.28;0.93;;;;;;;;;;4174712;28;20552;-37
2021/11/25 11:23:43;;;;;;;1.65;0.80;;;;;;;;;;4170313;28;20076;-38
2021/11/25 11:25:44;;;;;;;3.10;1.08;;;;;;;;;;4164471;28;20064;-38
2021/11/25 11:27:46;;;;;;;2.35;1.00;;;;;;;;;;4166566;28;20056;-38
2021/11/25 11:29:47;;;;;;;2.13;0.90;;;;;;;;;;4165599;28;20706;-40
2021/11/25 11:31:51;;;;;;;1.02;0.63;;;;;;;;;;4164668;28;20171;-38
2021/11/25 11:33:52;;;;;;;1.98;1.00;;;;;;;;;;4149572;28;20057;-39
2021/11/25 11:35:54;;;;;;;1.40;0.90;;;;;;;;;;4144814;28;20061;-42
2021/11/25 11:37:58;;;;;;;1.55;0.77;;;;;;;;;;4165443;28;20076;-38
2021/11/25 11:40:02;;;;;;;2.38;0.82;;;;;;;;;;4149728;28;20050;-38
2021/11/25 11:42:07;;;;;;;3.47;1.02;;;;;;;;;;4165916;28;20103;-38
2021/11/25 11:44:08;;;;;;;1.65;0.95;;;;;;;;;;4167586;28;20076;-39
2021/11/25 11:46:10;;;;;;;2.03;0.80;;;;;;;;;;4167880;28;20060;-41
2021/11/25 11:48:13;;;;;;;1.77;0.90;;;;;;;;;;4164028;28;20126;-39
2021/11/25 11:50:14;;;;;;;1.63;0.88;;;;;;;;;;4160449;28;20123;-39
2021/11/25 11:52:23;;;;;;;1.77;0.60;;;;;;;;;;4148392;28;20057;-40
2021/11/25 11:54:24;;;;;;;2.28;0.70;;;;;;;;;;4170318;28;20065;-39
2021/11/25 11:56:40;;;;;;;1.25;0.60;;;;;;;;;;4165142;28;20152;-39
2021/11/25 11:58:48;;;;;;;2.47;1.02;;;;;;;;;;4166234;28;20479;-37
2021/11/25 12:00:51;;;;;;;1.65;0.70;;;;;;;;;;4157682;28;20099;-38
2021/11/25 12:02:55;;;;;;;1.00;0.60;;;;;;;;;;4154733;28;20056;-39
2021/11/25 12:04:56;;;;;;;1.88;0.70;;;;;;;;;;4146409;28;20114;-39
2021/11/25 12:06:57;;;;;;;2.25;0.95;;;;;;;;;;4166789;28;20138;-38
2021/11/25 12:09:00;;;;;;;3.10;0.68;;;;;;;;;;4154304;28;20088;-38
2021/11/25 12:11:03;;;;;;;2.80;0.65;;;;;;;;;;4167595;28;20071;-39
2021/11/25 12:13:05;;;;;;;1.13;0.60;;;;;;;;;;4171798;28;20190;-39
2021/11/25 12:15:16;;;;;;;1.52;0.52;;;;;;;;;;4166909;28;20053;-39
2021/11/25 12:17:33;;;;;;;1.15;0.77;;;;;;;;;;4155563;28;20413;-42
2021/11/25 12:19:43;;;;;;;1.90;0.60;;;;;;;;;;4165749;28;20382;-38
2021/11/25 12:21:49;;;;;;;3.45;0.82;;;;;;;;;;4158501;28;20090;-38
2021/11/25 12:24:17;;;;;;;0.77;0.50;;;;;;;;;;4166344;28;20058;-39